Terminal Aerodrome Forecast
Issued by NWS Mobile, AL

Home | Current Version | Previous Version | Text Only | Print | Product List | Glossary On
Versions: 1 2 3 4 5 6 7 8 9 10 11 12 13 14 15 16 17 18 19 20 21
000
FTUS44 KMOB 212340
TAFMOB
TAF
KMOB 212340Z 2200/2224 14010KT P6SM SCT007 OVC012
      TEMPO 2201/2204 VRB15G25KT 3SM TSRA BR BKN007 OVC015CB
     FM220500 17013G20KT 3SM BR BKN007
     FM221500 24012G20KT P6SM SCT030 BKN100=

USA.gov is the U.S. government's official web portal to all federal, state and local government web resources and services.